sensor_id;sensor_type;location;lat;lon;timestamp;P1;durP1;ratioP1;P2;durP2;ratioP2
4519;SDS011;2272;49.226;8.108;2022-07-23T00:01:49;10.43;;;8.17;;
4519;SDS011;2272;49.226;8.108;2022-07-23T00:04:16;7.60;;;7.00;;
4519;SDS011;2272;49.226;8.108;2022-07-23T00:06:43;10.93;;;7.23;;
4519;SDS011;2272;49.226;8.108;2022-07-23T00:09:11;7.27;;;6.60;;
4519;SDS011;2272;49.226;8.108;2022-07-23T00:11:38;9.00;;;8.10;;
4519;SDS011;2272;49.226;8.108;2022-07-23T00:14:05;8.33;;;7.53;;
4519;SDS011;2272;49.226;8.108;2022-07-23T00:16:31;7.87;;;7.27;;
4519;SDS011;2272;49.226;8.108;2022-07-23T00:18:58;7.80;;;7.10;;
4519;SDS011;2272;49.226;8.108;2022-07-23T00:21:26;7.90;;;7.10;;
4519;SDS011;2272;49.226;8.108;2022-07-23T00:23:53;17.53;;;7.30;;
4519;SDS011;2272;49.226;8.108;2022-07-23T00:26:21;13.20;;;9.67;;
4519;SDS011;2272;49.226;8.108;2022-07-23T00:28:47;9.60;;;7.90;;
4519;SDS011;2272;49.226;8.108;2022-07-23T00:31:14;8.70;;;7.90;;
4519;SDS011;2272;49.226;8.108;2022-07-23T00:33:41;19.83;;;8.13;;
4519;SDS011;2272;49.226;8.108;2022-07-23T00:36:08;8.93;;;8.03;;
4519;SDS011;2272;49.226;8.108;2022-07-23T00:38:35;14.33;;;8.90;;
4519;SDS011;2272;49.226;8.108;2022-07-23T00:41:01;9.40;;;8.37;;
4519;SDS011;2272;49.226;8.108;2022-07-23T00:43:29;8.87;;;7.50;;
4519;SDS011;2272;49.226;8.108;2022-07-23T00:45:56;14.00;;;8.70;;
4519;SDS011;2272;49.226;8.108;2022-07-23T00:48:23;8.07;;;7.37;;
4519;SDS011;2272;49.226;8.108;2022-07-23T00:50:49;8.87;;;8.07;;
4519;SDS011;2272;49.226;8.108;2022-07-23T00:53:16;7.73;;;7.13;;
4519;SDS011;2272;49.226;8.108;2022-07-23T00:55:43;8.80;;;7.97;;
4519;SDS011;2272;49.226;8.108;2022-07-23T00:58:10;9.30;;;8.40;;
4519;SDS011;2272;49.226;8.108;2022-07-23T01:00:39;11.47;;;8.50;;
4519;SDS011;2272;49.226;8.108;2022-07-23T01:03:06;8.43;;;7.73;;
4519;SDS011;2272;49.226;8.108;2022-07-23T01:05:32;9.33;;;8.10;;
4519;SDS011;2272;49.226;8.108;2022-07-23T01:07:59;9.60;;;7.67;;
4519;SDS011;2272;49.226;8.108;2022-07-23T01:10:27;7.67;;;6.93;;
4519;SDS011;2272;49.226;8.108;2022-07-23T01:12:59;8.27;;;7.50;;
4519;SDS011;2272;49.226;8.108;2022-07-23T01:15:27;8.30;;;7.60;;
4519;SDS011;2272;49.226;8.108;2022-07-23T01:17:55;10.70;;;9.03;;
4519;SDS011;2272;49.226;8.108;2022-07-23T01:20:22;9.73;;;8.83;;
4519;SDS011;2272;49.226;8.108;2022-07-23T01:22:50;9.83;;;8.17;;
4519;SDS011;2272;49.226;8.108;2022-07-23T01:25:18;9.20;;;8.10;;
4519;SDS011;2272;49.226;8.108;2022-07-23T01:27:45;11.60;;;8.80;;
4519;SDS011;2272;49.226;8.108;2022-07-23T01:30:12;11.17;;;8.57;;
4519;SDS011;2272;49.226;8.108;2022-07-23T01:32:39;10.90;;;9.20;;
4519;SDS011;2272;49.226;8.108;2022-07-23T01:35:06;9.43;;;8.53;;
4519;SDS011;2272;49.226;8.108;2022-07-23T01:37:34;8.63;;;7.80;;
4519;SDS011;2272;49.226;8.108;2022-07-23T01:40:02;8.77;;;7.97;;
4519;SDS011;2272;49.226;8.108;2022-07-23T01:42:30;8.90;;;8.03;;
4519;SDS011;2272;49.226;8.108;2022-07-23T01:44:57;13.33;;;8.17;;
4519;SDS011;2272;49.226;8.108;2022-07-23T01:47:24;8.83;;;8.03;;
4519;SDS011;2272;49.226;8.108;2022-07-23T01:49:50;9.10;;;8.17;;
4519;SDS011;2272;49.226;8.108;2022-07-23T01:52:17;8.97;;;8.10;;
4519;SDS011;2272;49.226;8.108;2022-07-23T01:54:44;8.20;;;7.07;;
4519;SDS011;2272;49.226;8.108;2022-07-23T01:57:12;9.17;;;8.30;;
4519;SDS011;2272;49.226;8.108;2022-07-23T01:59:38;12.10;;;8.60;;
4519;SDS011;2272;49.226;8.108;2022-07-23T02:02:05;8.97;;;8.20;;
4519;SDS011;2272;49.226;8.108;2022-07-23T02:04:32;11.10;;;7.80;;
4519;SDS011;2272;49.226;8.108;2022-07-23T02:07:01;12.20;;;9.33;;
4519;SDS011;2272;49.226;8.108;2022-07-23T02:09:29;9.23;;;8.33;;
4519;SDS011;2272;49.226;8.108;2022-07-23T02:11:56;8.93;;;8.13;;
4519;SDS011;2272;49.226;8.108;2022-07-23T02:14:24;9.00;;;8.10;;
4519;SDS011;2272;49.226;8.108;2022-07-23T02:16:51;8.53;;;7.83;;
4519;SDS011;2272;49.226;8.108;2022-07-23T02:19:18;8.90;;;8.00;;
4519;SDS011;2272;49.226;8.108;2022-07-23T02:21:45;9.13;;;7.70;;
4519;SDS011;2272;49.226;8.108;2022-07-23T02:24:11;8.10;;;7.40;;
4519;SDS011;2272;49.226;8.108;2022-07-23T02:26:38;7.93;;;7.33;;
4519;SDS011;2272;49.226;8.108;2022-07-23T02:29:05;8.47;;;7.63;;
4519;SDS011;2272;49.226;8.108;2022-07-23T02:31:33;8.17;;;7.40;;
4519;SDS011;2272;49.226;8.108;2022-07-23T02:34:00;8.23;;;7.43;;
4519;SDS011;2272;49.226;8.108;2022-07-23T02:36:27;12.90;;;8.30;;
4519;SDS011;2272;49.226;8.108;2022-07-23T02:38:54;10.10;;;8.17;;
4519;SDS011;2272;49.226;8.108;2022-07-23T02:41:21;8.57;;;7.77;;
4519;SDS011;2272;49.226;8.108;2022-07-23T02:43:48;8.80;;;7.20;;
4519;SDS011;2272;49.226;8.108;2022-07-23T02:46:15;8.53;;;7.70;;
4519;SDS011;2272;49.226;8.108;2022-07-23T02:48:43;8.70;;;7.90;;
4519;SDS011;2272;49.226;8.108;2022-07-23T02:51:10;10.63;;;8.33;;
4519;SDS011;2272;49.226;8.108;2022-07-23T02:53:37;8.43;;;7.47;;
4519;SDS011;2272;49.226;8.108;2022-07-23T02:56:04;8.87;;;8.03;;
4519;SDS011;2272;49.226;8.108;2022-07-23T02:58:30;8.17;;;7.40;;
4519;SDS011;2272;49.226;8.108;2022-07-23T03:00:57;7.90;;;7.23;;
4519;SDS011;2272;49.226;8.108;2022-07-23T03:03:24;9.13;;;7.70;;
4519;SDS011;2272;49.226;8.108;2022-07-23T03:05:52;7.40;;;6.80;;
4519;SDS011;2272;49.226;8.108;2022-07-23T03:08:19;7.37;;;6.77;;
4519;SDS011;2272;49.226;8.108;2022-07-23T03:10:46;7.43;;;6.83;;
4519;SDS011;2272;49.226;8.108;2022-07-23T03:13:12;7.33;;;6.60;;
4519;SDS011;2272;49.226;8.108;2022-07-23T03:15:39;7.60;;;6.90;;
4519;SDS011;2272;49.226;8.108;2022-07-23T03:18:06;11.47;;;8.30;;
4519;SDS011;2272;49.226;8.108;2022-07-23T03:20:32;9.03;;;8.20;;
4519;SDS011;2272;49.226;8.108;2022-07-23T03:23:00;12.00;;;9.53;;
4519;SDS011;2272;49.226;8.108;2022-07-23T03:25:27;7.80;;;7.10;;
4519;SDS011;2272;49.226;8.108;2022-07-23T03:27:54;8.40;;;7.70;;
4519;SDS011;2272;49.226;8.108;2022-07-23T03:30:21;8.97;;;7.90;;
4519;SDS011;2272;49.226;8.108;2022-07-23T03:32:48;10.37;;;8.60;;
4519;SDS011;2272;49.226;8.108;2022-07-23T03:35:14;11.00;;;8.20;;
4519;SDS011;2272;49.226;8.108;2022-07-23T03:37:41;8.07;;;7.37;;
4519;SDS011;2272;49.226;8.108;2022-07-23T03:40:10;8.10;;;7.30;;
4519;SDS011;2272;49.226;8.108;2022-07-23T03:42:37;9.37;;;8.50;;
4519;SDS011;2272;49.226;8.108;2022-07-23T03:45:06;9.17;;;7.50;;
4519;SDS011;2272;49.226;8.108;2022-07-23T03:47:33;10.80;;;7.20;;
4519;SDS011;2272;49.226;8.108;2022-07-23T03:50:00;10.37;;;8.97;;
4519;SDS011;2272;49.226;8.108;2022-07-23T03:52:26;8.73;;;7.90;;
4519;SDS011;2272;49.226;8.108;2022-07-23T03:54:53;9.80;;;8.00;;
4519;SDS011;2272;49.226;8.108;2022-07-23T03:57:21;8.03;;;7.07;;
4519;SDS011;2272;49.226;8.108;2022-07-23T03:59:48;12.73;;;8.10;;
4519;SDS011;2272;49.226;8.108;2022-07-23T04:02:15;8.93;;;8.13;;
4519;SDS011;2272;49.226;8.108;2022-07-23T04:04:41;8.10;;;7.30;;
4519;SDS011;2272;49.226;8.108;2022-07-23T04:07:08;8.30;;;7.60;;
4519;SDS011;2272;49.226;8.108;2022-07-23T04:09:35;9.83;;;7.93;;
4519;SDS011;2272;49.226;8.108;2022-07-23T04:12:01;10.10;;;9.10;;
4519;SDS011;2272;49.226;8.108;2022-07-23T04:14:29;9.30;;;8.30;;
4519;SDS011;2272;49.226;8.108;2022-07-23T04:16:56;9.53;;;8.63;;
4519;SDS011;2272;49.226;8.108;2022-07-23T04:19:23;12.13;;;8.27;;
4519;SDS011;2272;49.226;8.108;2022-07-23T04:21:50;9.97;;;8.97;;
4519;SDS011;2272;49.226;8.108;2022-07-23T04:24:17;9.53;;;8.63;;
4519;SDS011;2272;49.226;8.108;2022-07-23T04:26:43;9.43;;;8.43;;
4519;SDS011;2272;49.226;8.108;2022-07-23T04:29:10;10.80;;;9.53;;
4519;SDS011;2272;49.226;8.108;2022-07-23T04:31:39;14.13;;;9.73;;
4519;SDS011;2272;49.226;8.108;2022-07-23T04:34:05;10.53;;;8.90;;
4519;SDS011;2272;49.226;8.108;2022-07-23T04:36:32;9.63;;;8.70;;
4519;SDS011;2272;49.226;8.108;2022-07-23T04:38:59;9.17;;;8.37;;
4519;SDS011;2272;49.226;8.108;2022-07-23T04:41:25;14.70;;;9.00;;
4519;SDS011;2272;49.226;8.108;2022-07-23T04:43:52;9.83;;;8.80;;
4519;SDS011;2272;49.226;8.108;2022-07-23T04:46:19;10.13;;;9.13;;
4519;SDS011;2272;49.226;8.108;2022-07-23T04:48:47;13.70;;;9.50;;
4519;SDS011;2272;49.226;8.108;2022-07-23T04:51:13;15.90;;;8.60;;
4519;SDS011;2272;49.226;8.108;2022-07-23T04:53:40;9.30;;;8.50;;
4519;SDS011;2272;49.226;8.108;2022-07-23T04:56:07;12.40;;;8.70;;
4519;SDS011;2272;49.226;8.108;2022-07-23T04:58:34;24.47;;;8.80;;
4519;SDS011;2272;49.226;8.108;2022-07-23T05:01:01;9.90;;;8.00;;
4519;SDS011;2272;49.226;8.108;2022-07-23T05:03:27;13.67;;;10.23;;
4519;SDS011;2272;49.226;8.108;2022-07-23T05:05:55;9.87;;;8.87;;
4519;SDS011;2272;49.226;8.108;2022-07-23T05:08:22;8.90;;;8.20;;
4519;SDS011;2272;49.226;8.108;2022-07-23T05:10:49;14.37;;;10.57;;
4519;SDS011;2272;49.226;8.108;2022-07-23T05:13:16;10.37;;;9.40;;
4519;SDS011;2272;49.226;8.108;2022-07-23T05:15:43;10.40;;;9.50;;
4519;SDS011;2272;49.226;8.108;2022-07-23T05:18:10;9.80;;;8.90;;
4519;SDS011;2272;49.226;8.108;2022-07-23T05:20:37;11.90;;;10.10;;
4519;SDS011;2272;49.226;8.108;2022-07-23T05:23:06;9.80;;;8.80;;
4519;SDS011;2272;49.226;8.108;2022-07-23T05:25:33;10.13;;;9.20;;
4519;SDS011;2272;49.226;8.108;2022-07-23T05:28:00;10.63;;;9.63;;
4519;SDS011;2272;49.226;8.108;2022-07-23T05:30:26;10.53;;;8.57;;
4519;SDS011;2272;49.226;8.108;2022-07-23T05:32:53;17.17;;;9.57;;
4519;SDS011;2272;49.226;8.108;2022-07-23T05:35:20;17.23;;;8.83;;
4519;SDS011;2272;49.226;8.108;2022-07-23T05:37:47;9.53;;;8.33;;
4519;SDS011;2272;49.226;8.108;2022-07-23T05:40:15;8.30;;;7.60;;
4519;SDS011;2272;49.226;8.108;2022-07-23T05:42:41;9.87;;;8.57;;
4519;SDS011;2272;49.226;8.108;2022-07-23T05:45:08;8.97;;;8.27;;
4519;SDS011;2272;49.226;8.108;2022-07-23T05:47:40;14.83;;;8.03;;
4519;SDS011;2272;49.226;8.108;2022-07-23T05:50:08;9.70;;;8.10;;
4519;SDS011;2272;49.226;8.108;2022-07-23T05:52:35;9.37;;;8.57;;
4519;SDS011;2272;49.226;8.108;2022-07-23T05:55:02;11.87;;;9.20;;
4519;SDS011;2272;49.226;8.108;2022-07-23T05:57:30;8.70;;;7.90;;
4519;SDS011;2272;49.226;8.108;2022-07-23T05:59:57;9.50;;;8.50;;
4519;SDS011;2272;49.226;8.108;2022-07-23T06:02:23;8.97;;;8.07;;
4519;SDS011;2272;49.226;8.108;2022-07-23T06:04:50;11.13;;;8.07;;
4519;SDS011;2272;49.226;8.108;2022-07-23T06:07:17;9.47;;;8.67;;
4519;SDS011;2272;49.226;8.108;2022-07-23T06:09:43;9.33;;;8.53;;
4519;SDS011;2272;49.226;8.108;2022-07-23T06:12:11;12.07;;;7.67;;
4519;SDS011;2272;49.226;8.108;2022-07-23T06:14:40;8.83;;;8.00;;
4519;SDS011;2272;49.226;8.108;2022-07-23T06:17:07;9.33;;;7.80;;
4519;SDS011;2272;49.226;8.108;2022-07-23T06:19:33;8.20;;;7.60;;
4519;SDS011;2272;49.226;8.108;2022-07-23T06:22:00;8.20;;;7.43;;
4519;SDS011;2272;49.226;8.108;2022-07-23T06:24:27;12.53;;;8.30;;
4519;SDS011;2272;49.226;8.108;2022-07-23T06:26:53;9.90;;;8.10;;
4519;SDS011;2272;49.226;8.108;2022-07-23T06:29:20;8.70;;;7.40;;
4519;SDS011;2272;49.226;8.108;2022-07-23T06:31:48;10.20;;;8.27;;
4519;SDS011;2272;49.226;8.108;2022-07-23T06:34:15;9.13;;;8.23;;
4519;SDS011;2272;49.226;8.108;2022-07-23T06:36:41;9.97;;;8.97;;
4519;SDS011;2272;49.226;8.108;2022-07-23T06:39:08;9.57;;;8.77;;
4519;SDS011;2272;49.226;8.108;2022-07-23T06:41:35;11.00;;;9.63;;
4519;SDS011;2272;49.226;8.108;2022-07-23T06:44:02;15.83;;;14.20;;
4519;SDS011;2272;49.226;8.108;2022-07-23T06:46:29;15.87;;;14.13;;
4519;SDS011;2272;49.226;8.108;2022-07-23T06:48:57;15.23;;;13.43;;
4519;SDS011;2272;49.226;8.108;2022-07-23T06:51:23;14.90;;;12.90;;
4519;SDS011;2272;49.226;8.108;2022-07-23T06:53:50;13.07;;;11.67;;
4519;SDS011;2272;49.226;8.108;2022-07-23T06:56:17;12.97;;;11.37;;
4519;SDS011;2272;49.226;8.108;2022-07-23T06:58:43;11.90;;;10.63;;
4519;SDS011;2272;49.226;8.108;2022-07-23T07:01:11;11.10;;;9.97;;
4519;SDS011;2272;49.226;8.108;2022-07-23T07:03:37;10.30;;;9.20;;
4519;SDS011;2272;49.226;8.108;2022-07-23T07:06:05;12.93;;;10.40;;
4519;SDS011;2272;49.226;8.108;2022-07-23T07:08:32;10.80;;;9.77;;
4519;SDS011;2272;49.226;8.108;2022-07-23T07:10:59;11.93;;;10.70;;
4519;SDS011;2272;49.226;8.108;2022-07-23T07:13:26;14.20;;;12.30;;
4519;SDS011;2272;49.226;8.108;2022-07-23T07:15:52;18.60;;;14.87;;
4519;SDS011;2272;49.226;8.108;2022-07-23T07:18:19;14.90;;;12.80;;
4519;SDS011;2272;49.226;8.108;2022-07-23T07:20:46;15.03;;;12.57;;
4519;SDS011;2272;49.226;8.108;2022-07-23T07:23:14;14.07;;;10.97;;
4519;SDS011;2272;49.226;8.108;2022-07-23T07:25:42;14.13;;;11.50;;
4519;SDS011;2272;49.226;8.108;2022-07-23T07:28:08;19.00;;;11.67;;
4519;SDS011;2272;49.226;8.108;2022-07-23T07:30:35;12.37;;;11.00;;
4519;SDS011;2272;49.226;8.108;2022-07-23T07:33:02;14.17;;;12.63;;
4519;SDS011;2272;49.226;8.108;2022-07-23T07:35:29;14.07;;;12.67;;
4519;SDS011;2272;49.226;8.108;2022-07-23T07:37:56;13.23;;;11.10;;
4519;SDS011;2272;49.226;8.108;2022-07-23T07:40:24;12.10;;;10.50;;
4519;SDS011;2272;49.226;8.108;2022-07-23T07:42:51;13.30;;;11.70;;
4519;SDS011;2272;49.226;8.108;2022-07-23T07:45:21;12.00;;;10.93;;
4519;SDS011;2272;49.226;8.108;2022-07-23T07:47:49;10.50;;;9.50;;
4519;SDS011;2272;49.226;8.108;2022-07-23T07:50:16;15.90;;;10.40;;
4519;SDS011;2272;49.226;8.108;2022-07-23T07:52:42;12.50;;;9.77;;
4519;SDS011;2272;49.226;8.108;2022-07-23T07:55:10;10.80;;;9.70;;
4519;SDS011;2272;49.226;8.108;2022-07-23T07:57:38;11.80;;;10.00;;
4519;SDS011;2272;49.226;8.108;2022-07-23T08:00:06;11.93;;;10.33;;
4519;SDS011;2272;49.226;8.108;2022-07-23T08:02:39;14.30;;;11.57;;
4519;SDS011;2272;49.226;8.108;2022-07-23T08:05:09;15.33;;;13.73;;
4519;SDS011;2272;49.226;8.108;2022-07-23T08:07:37;15.20;;;13.77;;
4519;SDS011;2272;49.226;8.108;2022-07-23T08:10:04;14.27;;;12.13;;
4519;SDS011;2272;49.226;8.108;2022-07-23T08:12:42;11.67;;;10.57;;
4519;SDS011;2272;49.226;8.108;2022-07-23T08:15:11;10.67;;;9.57;;
4519;SDS011;2272;49.226;8.108;2022-07-23T08:17:38;8.20;;;7.60;;
4519;SDS011;2272;49.226;8.108;2022-07-23T08:20:05;9.40;;;8.50;;
4519;SDS011;2272;49.226;8.108;2022-07-23T08:22:43;12.20;;;8.50;;
4519;SDS011;2272;49.226;8.108;2022-07-23T08:25:12;8.00;;;7.40;;
4519;SDS011;2272;49.226;8.108;2022-07-23T08:27:39;8.37;;;7.67;;
4519;SDS011;2272;49.226;8.108;2022-07-23T08:30:07;8.97;;;8.17;;
4519;SDS011;2272;49.226;8.108;2022-07-23T08:32:47;13.63;;;8.00;;
4519;SDS011;2272;49.226;8.108;2022-07-23T08:35:15;10.90;;;7.27;;
4519;SDS011;2272;49.226;8.108;2022-07-23T08:37:41;7.83;;;7.03;;
4519;SDS011;2272;49.226;8.108;2022-07-23T08:40:08;8.60;;;7.00;;
4519;SDS011;2272;49.226;8.108;2022-07-23T08:42:36;8.40;;;7.67;;
4519;SDS011;2272;49.226;8.108;2022-07-23T08:45:04;7.57;;;6.83;;
4519;SDS011;2272;49.226;8.108;2022-07-23T08:47:35;8.80;;;7.37;;
4519;SDS011;2272;49.226;8.108;2022-07-23T08:50:03;8.00;;;7.20;;
4519;SDS011;2272;49.226;8.108;2022-07-23T08:52:32;11.07;;;8.00;;
4519;SDS011;2272;49.226;8.108;2022-07-23T08:55:00;8.93;;;8.03;;
4519;SDS011;2272;49.226;8.108;2022-07-23T08:57:27;7.97;;;7.23;;
4519;SDS011;2272;49.226;8.108;2022-07-23T08:59:53;10.63;;;7.80;;
4519;SDS011;2272;49.226;8.108;2022-07-23T09:02:22;8.30;;;7.50;;
4519;SDS011;2272;49.226;8.108;2022-07-23T09:04:48;8.90;;;8.10;;
4519;SDS011;2272;49.226;8.108;2022-07-23T09:07:15;8.57;;;7.77;;
4519;SDS011;2272;49.226;8.108;2022-07-23T09:09:42;7.97;;;7.27;;
4519;SDS011;2272;49.226;8.108;2022-07-23T09:12:09;8.03;;;7.47;;
4519;SDS011;2272;49.226;8.108;2022-07-23T09:14:37;10.70;;;8.03;;
4519;SDS011;2272;49.226;8.108;2022-07-23T09:17:08;10.17;;;6.90;;
4519;SDS011;2272;49.226;8.108;2022-07-23T09:19:37;8.23;;;7.50;;
4519;SDS011;2272;49.226;8.108;2022-07-23T09:22:18;8.80;;;8.00;;
4519;SDS011;2272;49.226;8.108;2022-07-23T09:25:04;10.07;;;8.40;;
4519;SDS011;2272;49.226;8.108;2022-07-23T09:30:19;9.03;;;7.80;;
4519;SDS011;2272;49.226;8.108;2022-07-23T09:33:06;9.57;;;8.77;;
4519;SDS011;2272;49.226;8.108;2022-07-23T09:35:45;9.23;;;8.30;;
4519;SDS011;2272;49.226;8.108;2022-07-23T09:38:14;9.30;;;8.53;;
4519;SDS011;2272;49.226;8.108;2022-07-23T09:40:41;8.80;;;8.00;;
4519;SDS011;2272;49.226;8.108;2022-07-23T09:43:09;8.57;;;7.77;;
4519;SDS011;2272;49.226;8.108;2022-07-23T09:45:35;11.67;;;7.50;;
4519;SDS011;2272;49.226;8.108;2022-07-23T09:48:11;8.43;;;7.73;;
4519;SDS011;2272;49.226;8.108;2022-07-23T09:50:38;9.00;;;8.17;;
4519;SDS011;2272;49.226;8.108;2022-07-23T09:53:07;8.27;;;7.57;;
4519;SDS011;2272;49.226;8.108;2022-07-23T09:55:34;7.67;;;6.97;;
4519;SDS011;2272;49.226;8.108;2022-07-23T09:58:03;7.73;;;7.10;;
4519;SDS011;2272;49.226;8.108;2022-07-23T10:00:30;9.00;;;8.07;;
4519;SDS011;2272;49.226;8.108;2022-07-23T10:02:57;8.33;;;7.53;;
4519;SDS011;2272;49.226;8.108;2022-07-23T10:05:25;7.33;;;6.63;;
4519;SDS011;2272;49.226;8.108;2022-07-23T10:07:52;7.57;;;6.87;;
4519;SDS011;2272;49.226;8.108;2022-07-23T10:10:21;8.47;;;7.73;;
4519;SDS011;2272;49.226;8.108;2022-07-23T10:12:52;8.20;;;7.13;;
4519;SDS011;2272;49.226;8.108;2022-07-23T10:15:35;8.07;;;7.30;;
4519;SDS011;2272;49.226;8.108;2022-07-23T10:18:02;7.67;;;6.83;;
4519;SDS011;2272;49.226;8.108;2022-07-23T10:20:29;6.23;;;5.83;;
4519;SDS011;2272;49.226;8.108;2022-07-23T10:22:57;7.90;;;7.10;;
4519;SDS011;2272;49.226;8.108;2022-07-23T10:25:32;7.97;;;6.97;;
4519;SDS011;2272;49.226;8.108;2022-07-23T10:28:07;7.77;;;7.07;;
4519;SDS011;2272;49.226;8.108;2022-07-23T10:30:43;7.07;;;6.53;;
4519;SDS011;2272;49.226;8.108;2022-07-23T10:33:20;8.70;;;7.57;;
4519;SDS011;2272;49.226;8.108;2022-07-23T10:35:57;7.60;;;7.00;;
4519;SDS011;2272;49.226;8.108;2022-07-23T10:38:30;8.37;;;6.70;;
4519;SDS011;2272;49.226;8.108;2022-07-23T10:41:03;7.53;;;6.93;;
4519;SDS011;2272;49.226;8.108;2022-07-23T10:43:31;8.70;;;6.63;;
4519;SDS011;2272;49.226;8.108;2022-07-23T10:46:21;8.33;;;7.00;;
4519;SDS011;2272;49.226;8.108;2022-07-23T10:54:44;7.30;;;6.60;;
4519;SDS011;2272;49.226;8.108;2022-07-23T10:57:14;7.47;;;6.77;;
4519;SDS011;2272;49.226;8.108;2022-07-23T11:02:43;7.67;;;6.80;;
4519;SDS011;2272;49.226;8.108;2022-07-23T11:05:12;7.80;;;6.30;;
4519;SDS011;2272;49.226;8.108;2022-07-23T11:10:51;8.40;;;7.23;;
4519;SDS011;2272;49.226;8.108;2022-07-23T11:13:28;8.27;;;6.97;;
4519;SDS011;2272;49.226;8.108;2022-07-23T11:16:03;7.77;;;7.10;;
4519;SDS011;2272;49.226;8.108;2022-07-23T11:18:52;7.70;;;7.10;;
4519;SDS011;2272;49.226;8.108;2022-07-23T11:21:41;7.90;;;7.20;;
4519;SDS011;2272;49.226;8.108;2022-07-23T11:24:14;7.13;;;6.47;;
4519;SDS011;2272;49.226;8.108;2022-07-23T11:26:49;8.90;;;7.40;;
4519;SDS011;2272;49.226;8.108;2022-07-23T11:29:41;7.30;;;6.60;;
4519;SDS011;2272;49.226;8.108;2022-07-23T11:32:18;7.53;;;6.90;;
4519;SDS011;2272;49.226;8.108;2022-07-23T11:34:53;8.87;;;7.93;;
4519;SDS011;2272;49.226;8.108;2022-07-23T11:37:27;8.63;;;7.80;;
4519;SDS011;2272;49.226;8.108;2022-07-23T11:39:57;9.60;;;7.27;;
4519;SDS011;2272;49.226;8.108;2022-07-23T11:42:24;10.47;;;7.20;;
4519;SDS011;2272;49.226;8.108;2022-07-23T11:44:53;7.87;;;7.10;;
4519;SDS011;2272;49.226;8.108;2022-07-23T11:47:21;12.43;;;7.63;;
4519;SDS011;2272;49.226;8.108;2022-07-23T11:49:53;7.43;;;6.83;;
4519;SDS011;2272;49.226;8.108;2022-07-23T11:52:20;9.87;;;6.70;;
4519;SDS011;2272;49.226;8.108;2022-07-23T11:54:48;11.13;;;7.90;;
4519;SDS011;2272;49.226;8.108;2022-07-23T11:57:16;8.77;;;7.10;;
4519;SDS011;2272;49.226;8.108;2022-07-23T11:59:45;6.90;;;6.20;;
4519;SDS011;2272;49.226;8.108;2022-07-23T12:02:14;6.37;;;5.87;;
4519;SDS011;2272;49.226;8.108;2022-07-23T12:04:45;6.80;;;6.30;;
4519;SDS011;2272;49.226;8.108;2022-07-23T12:09:55;7.47;;;6.77;;
4519;SDS011;2272;49.226;8.108;2022-07-23T12:12:23;6.03;;;5.53;;
4519;SDS011;2272;49.226;8.108;2022-07-23T12:14:51;7.53;;;6.87;;
4519;SDS011;2272;49.226;8.108;2022-07-23T12:17:20;6.57;;;6.00;;
4519;SDS011;2272;49.226;8.108;2022-07-23T12:19:52;6.77;;;6.17;;
4519;SDS011;2272;49.226;8.108;2022-07-23T12:22:20;6.63;;;6.13;;
4519;SDS011;2272;49.226;8.108;2022-07-23T12:24:57;6.97;;;6.27;;
4519;SDS011;2272;49.226;8.108;2022-07-23T12:27:25;7.43;;;6.30;;
4519;SDS011;2272;49.226;8.108;2022-07-23T12:29:53;6.23;;;5.73;;
4519;SDS011;2272;49.226;8.108;2022-07-23T12:32:22;6.00;;;5.60;;
4519;SDS011;2272;49.226;8.108;2022-07-23T12:34:50;10.40;;;5.73;;
4519;SDS011;2272;49.226;8.108;2022-07-23T12:37:29;7.57;;;5.67;;
4519;SDS011;2272;49.226;8.108;2022-07-23T12:39:56;6.70;;;6.20;;
4519;SDS011;2272;49.226;8.108;2022-07-23T12:42:24;6.90;;;5.90;;
4519;SDS011;2272;49.226;8.108;2022-07-23T12:45:03;6.87;;;6.27;;
4519;SDS011;2272;49.226;8.108;2022-07-23T12:50:35;6.83;;;6.10;;
4519;SDS011;2272;49.226;8.108;2022-07-23T12:53:04;6.87;;;6.37;;
4519;SDS011;2272;49.226;8.108;2022-07-23T12:55:32;7.10;;;6.10;;
4519;SDS011;2272;49.226;8.108;2022-07-23T12:58:03;9.10;;;6.30;;
4519;SDS011;2272;49.226;8.108;2022-07-23T13:00:31;6.13;;;5.67;;
4519;SDS011;2272;49.226;8.108;2022-07-23T13:02:59;5.93;;;5.43;;
4519;SDS011;2272;49.226;8.108;2022-07-23T13:05:26;6.83;;;5.70;;
4519;SDS011;2272;49.226;8.108;2022-07-23T13:07:52;7.10;;;6.40;;
4519;SDS011;2272;49.226;8.108;2022-07-23T13:10:19;6.83;;;6.10;;
4519;SDS011;2272;49.226;8.108;2022-07-23T13:12:46;9.63;;;6.07;;
4519;SDS011;2272;49.226;8.108;2022-07-23T13:15:13;6.63;;;6.13;;
4519;SDS011;2272;49.226;8.108;2022-07-23T13:17:39;7.33;;;5.63;;
4519;SDS011;2272;49.226;8.108;2022-07-23T13:20:11;7.53;;;5.87;;
4519;SDS011;2272;49.226;8.108;2022-07-23T13:22:38;6.80;;;6.23;;
4519;SDS011;2272;49.226;8.108;2022-07-23T13:25:05;6.53;;;5.97;;
4519;SDS011;2272;49.226;8.108;2022-07-23T13:27:32;6.90;;;6.40;;
4519;SDS011;2272;49.226;8.108;2022-07-23T13:29:59;6.83;;;6.07;;
4519;SDS011;2272;49.226;8.108;2022-07-23T13:32:26;8.33;;;6.20;;
4519;SDS011;2272;49.226;8.108;2022-07-23T13:34:52;12.20;;;6.47;;
4519;SDS011;2272;49.226;8.108;2022-07-23T13:37:20;6.73;;;6.10;;
4519;SDS011;2272;49.226;8.108;2022-07-23T13:39:47;9.00;;;6.70;;
4519;SDS011;2272;49.226;8.108;2022-07-23T13:42:14;7.90;;;7.10;;
4519;SDS011;2272;49.226;8.108;2022-07-23T13:44:41;7.47;;;6.87;;
4519;SDS011;2272;49.226;8.108;2022-07-23T13:47:07;7.93;;;7.23;;
4519;SDS011;2272;49.226;8.108;2022-07-23T13:49:34;7.33;;;6.50;;
4519;SDS011;2272;49.226;8.108;2022-07-23T13:52:01;6.60;;;6.00;;
4519;SDS011;2272;49.226;8.108;2022-07-23T13:54:29;6.90;;;6.30;;
4519;SDS011;2272;49.226;8.108;2022-07-23T13:56:56;7.00;;;6.50;;
4519;SDS011;2272;49.226;8.108;2022-07-23T13:59:23;8.97;;;7.10;;
4519;SDS011;2272;49.226;8.108;2022-07-23T14:01:49;7.70;;;7.10;;
4519;SDS011;2272;49.226;8.108;2022-07-23T14:04:16;8.37;;;7.00;;
4519;SDS011;2272;49.226;8.108;2022-07-23T14:06:43;8.43;;;7.60;;
4519;SDS011;2272;49.226;8.108;2022-07-23T14:09:09;8.60;;;7.90;;
4519;SDS011;2272;49.226;8.108;2022-07-23T14:11:37;7.60;;;7.07;;
4519;SDS011;2272;49.226;8.108;2022-07-23T14:14:04;6.70;;;6.10;;
4519;SDS011;2272;49.226;8.108;2022-07-23T14:16:31;7.97;;;7.17;;
4519;SDS011;2272;49.226;8.108;2022-07-23T14:18:58;8.07;;;7.40;;
4519;SDS011;2272;49.226;8.108;2022-07-23T14:21:24;8.50;;;6.77;;
4519;SDS011;2272;49.226;8.108;2022-07-23T14:23:51;10.33;;;7.67;;
4519;SDS011;2272;49.226;8.108;2022-07-23T14:26:18;10.00;;;8.00;;
4519;SDS011;2272;49.226;8.108;2022-07-23T14:28:46;7.43;;;6.70;;
4519;SDS011;2272;49.226;8.108;2022-07-23T14:31:13;9.10;;;7.80;;
4519;SDS011;2272;49.226;8.108;2022-07-23T14:33:39;7.87;;;7.27;;
4519;SDS011;2272;49.226;8.108;2022-07-23T14:36:06;8.60;;;7.20;;
4519;SDS011;2272;49.226;8.108;2022-07-23T14:38:33;8.30;;;7.70;;
4519;SDS011;2272;49.226;8.108;2022-07-23T14:40:59;8.07;;;7.27;;
4519;SDS011;2272;49.226;8.108;2022-07-23T14:43:26;8.00;;;7.20;;
4519;SDS011;2272;49.226;8.108;2022-07-23T14:45:54;7.53;;;6.93;;
4519;SDS011;2272;49.226;8.108;2022-07-23T14:48:21;7.60;;;6.87;;
4519;SDS011;2272;49.226;8.108;2022-07-23T14:50:48;6.73;;;6.30;;
4519;SDS011;2272;49.226;8.108;2022-07-23T14:53:14;7.87;;;7.10;;
4519;SDS011;2272;49.226;8.108;2022-07-23T14:55:41;9.07;;;8.20;;
4519;SDS011;2272;49.226;8.108;2022-07-23T14:58:08;7.70;;;7.10;;
4519;SDS011;2272;49.226;8.108;2022-07-23T15:00:35;7.67;;;7.00;;
4519;SDS011;2272;49.226;8.108;2022-07-23T15:03:03;7.70;;;7.00;;
4519;SDS011;2272;49.226;8.108;2022-07-23T15:05:30;7.87;;;7.10;;
4519;SDS011;2272;49.226;8.108;2022-07-23T15:07:57;6.67;;;6.10;;
4519;SDS011;2272;49.226;8.108;2022-07-23T15:10:24;8.40;;;7.60;;
4519;SDS011;2272;49.226;8.108;2022-07-23T15:12:51;7.07;;;6.30;;
4519;SDS011;2272;49.226;8.108;2022-07-23T15:15:17;9.23;;;6.93;;
4519;SDS011;2272;49.226;8.108;2022-07-23T15:17:44;5.97;;;5.43;;
4519;SDS011;2272;49.226;8.108;2022-07-23T15:20:12;6.80;;;5.60;;
4519;SDS011;2272;49.226;8.108;2022-07-23T15:22:39;5.97;;;5.57;;
4519;SDS011;2272;49.226;8.108;2022-07-23T15:25:06;6.73;;;6.27;;
4519;SDS011;2272;49.226;8.108;2022-07-23T15:27:33;9.17;;;7.20;;
4519;SDS011;2272;49.226;8.108;2022-07-23T15:30:00;7.10;;;6.50;;
4519;SDS011;2272;49.226;8.108;2022-07-23T15:32:27;10.50;;;6.60;;
4519;SDS011;2272;49.226;8.108;2022-07-23T15:34:53;7.17;;;6.53;;
4519;SDS011;2272;49.226;8.108;2022-07-23T15:37:21;10.37;;;6.50;;